sensor_id;sensor_type;location;lat;lon;timestamp;temperature;humidity
52919;DHT22;38793;52.690;6.812;2023-09-19T00:00:42;15.40;99.90
52919;DHT22;38793;52.690;6.812;2023-09-19T00:03:09;15.40;99.90
52919;DHT22;38793;52.690;6.812;2023-09-19T00:05:36;15.40;99.90
52919;DHT22;38793;52.690;6.812;2023-09-19T00:08:04;15.40;99.90
52919;DHT22;38793;52.690;6.812;2023-09-19T00:10:30;15.40;99.90
52919;DHT22;38793;52.690;6.812;2023-09-19T00:13:00;15.40;99.90
52919;DHT22;38793;52.690;6.812;2023-09-19T00:15:31;15.40;99.90
52919;DHT22;38793;52.690;6.812;2023-09-19T00:18:00;15.30;99.90
52919;DHT22;38793;52.690;6.812;2023-09-19T00:20:26;15.30;99.90
52919;DHT22;38793;52.690;6.812;2023-09-19T00:22:52;15.30;99.90
52919;DHT22;38793;52.690;6.812;2023-09-19T00:25:19;15.30;99.90
52919;DHT22;38793;52.690;6.812;2023-09-19T00:27:46;15.30;99.90
52919;DHT22;38793;52.690;6.812;2023-09-19T00:30:17;15.20;99.90
52919;DHT22;38793;52.690;6.812;2023-09-19T00:32:47;15.20;99.90
52919;DHT22;38793;52.690;6.812;2023-09-19T00:35:14;15.20;99.90
52919;DHT22;38793;52.690;6.812;2023-09-19T00:37:41;15.10;99.90
52919;DHT22;38793;52.690;6.812;2023-09-19T00:40:07;15.10;99.90
52919;DHT22;38793;52.690;6.812;2023-09-19T00:42:38;15.10;99.90
52919;DHT22;38793;52.690;6.812;2023-09-19T00:45:05;15.10;99.90
52919;DHT22;38793;52.690;6.812;2023-09-19T00:47:31;15.10;99.90
52919;DHT22;38793;52.690;6.812;2023-09-19T00:49:57;15.00;99.90
52919;DHT22;38793;52.690;6.812;2023-09-19T00:52:22;15.10;99.90
52919;DHT22;38793;52.690;6.812;2023-09-19T00:54:49;15.10;99.90
52919;DHT22;38793;52.690;6.812;2023-09-19T00:57:15;15.00;99.90
52919;DHT22;38793;52.690;6.812;2023-09-19T00:59:45;15.00;99.90
52919;DHT22;38793;52.690;6.812;2023-09-19T01:02:14;15.00;99.90
52919;DHT22;38793;52.690;6.812;2023-09-19T01:04:40;14.90;99.90
52919;DHT22;38793;52.690;6.812;2023-09-19T01:07:06;14.90;99.90
52919;DHT22;38793;52.690;6.812;2023-09-19T01:09:33;14.90;99.90
52919;DHT22;38793;52.690;6.812;2023-09-19T01:12:02;14.80;99.90
52919;DHT22;38793;52.690;6.812;2023-09-19T01:14:54;14.80;99.90
52919;DHT22;38793;52.690;6.812;2023-09-19T01:17:30;14.80;99.90
52919;DHT22;38793;52.690;6.812;2023-09-19T01:23:14;14.80;99.90
52919;DHT22;38793;52.690;6.812;2023-09-19T01:28:53;14.70;99.90
52919;DHT22;38793;52.690;6.812;2023-09-19T01:31:21;14.70;99.90
52919;DHT22;38793;52.690;6.812;2023-09-19T01:34:01;14.70;99.90
52919;DHT22;38793;52.690;6.812;2023-09-19T01:36:37;14.70;99.90
52919;DHT22;38793;52.690;6.812;2023-09-19T01:39:12;14.70;99.90
52919;DHT22;38793;52.690;6.812;2023-09-19T01:44:43;14.70;99.90
52919;DHT22;38793;52.690;6.812;2023-09-19T01:53:21;14.60;99.90
52919;DHT22;38793;52.690;6.812;2023-09-19T01:55:48;14.60;99.90
52919;DHT22;38793;52.690;6.812;2023-09-19T01:58:33;14.60;99.90
52919;DHT22;38793;52.690;6.812;2023-09-19T02:01:01;14.50;99.90
52919;DHT22;38793;52.690;6.812;2023-09-19T02:03:27;14.50;99.90
52919;DHT22;38793;52.690;6.812;2023-09-19T02:05:54;14.50;99.90
52919;DHT22;38793;52.690;6.812;2023-09-19T02:08:21;14.50;99.90
52919;DHT22;38793;52.690;6.812;2023-09-19T02:10:48;14.50;99.90
52919;DHT22;38793;52.690;6.812;2023-09-19T02:13:18;14.40;99.90
52919;DHT22;38793;52.690;6.812;2023-09-19T02:15:45;14.40;99.90
52919;DHT22;38793;52.690;6.812;2023-09-19T02:18:12;14.40;99.90
52919;DHT22;38793;52.690;6.812;2023-09-19T02:20:38;14.30;99.90
52919;DHT22;38793;52.690;6.812;2023-09-19T02:23:04;14.30;99.90
52919;DHT22;38793;52.690;6.812;2023-09-19T02:25:30;14.30;99.90
52919;DHT22;38793;52.690;6.812;2023-09-19T02:27:57;14.30;99.90
52919;DHT22;38793;52.690;6.812;2023-09-19T02:30:27;14.20;99.90
52919;DHT22;38793;52.690;6.812;2023-09-19T02:32:52;14.20;99.90
52919;DHT22;38793;52.690;6.812;2023-09-19T02:35:18;14.20;99.90
52919;DHT22;38793;52.690;6.812;2023-09-19T02:37:48;14.10;99.90
52919;DHT22;38793;52.690;6.812;2023-09-19T02:40:14;14.10;99.90
52919;DHT22;38793;52.690;6.812;2023-09-19T02:42:54;14.10;99.90
52919;DHT22;38793;52.690;6.812;2023-09-19T02:45:20;14.10;99.90
52919;DHT22;38793;52.690;6.812;2023-09-19T02:47:46;14.10;99.90
52919;DHT22;38793;52.690;6.812;2023-09-19T02:50:12;14.10;99.90
52919;DHT22;38793;52.690;6.812;2023-09-19T02:52:41;14.10;99.90
52919;DHT22;38793;52.690;6.812;2023-09-19T02:55:09;14.10;99.90
52919;DHT22;38793;52.690;6.812;2023-09-19T02:57:35;14.10;99.90
52919;DHT22;38793;52.690;6.812;2023-09-19T03:00:07;14.00;99.90
52919;DHT22;38793;52.690;6.812;2023-09-19T03:02:33;14.00;99.90
52919;DHT22;38793;52.690;6.812;2023-09-19T03:05:00;14.00;99.90
52919;DHT22;38793;52.690;6.812;2023-09-19T03:07:26;14.00;99.90
52919;DHT22;38793;52.690;6.812;2023-09-19T03:09:51;14.00;99.90
52919;DHT22;38793;52.690;6.812;2023-09-19T03:12:18;14.00;99.90
52919;DHT22;38793;52.690;6.812;2023-09-19T03:14:43;14.00;99.90
52919;DHT22;38793;52.690;6.812;2023-09-19T03:17:09;14.00;99.90
52919;DHT22;38793;52.690;6.812;2023-09-19T03:19:35;14.00;99.90
52919;DHT22;38793;52.690;6.812;2023-09-19T03:22:03;14.00;99.90
52919;DHT22;38793;52.690;6.812;2023-09-19T03:24:28;14.00;99.90
52919;DHT22;38793;52.690;6.812;2023-09-19T03:26:54;14.00;99.90
52919;DHT22;38793;52.690;6.812;2023-09-19T03:29:20;14.00;99.90
52919;DHT22;38793;52.690;6.812;2023-09-19T03:31:46;14.00;99.90
52919;DHT22;38793;52.690;6.812;2023-09-19T03:34:11;14.00;99.90
52919;DHT22;38793;52.690;6.812;2023-09-19T03:36:37;14.00;99.90
52919;DHT22;38793;52.690;6.812;2023-09-19T03:39:02;14.00;99.90
52919;DHT22;38793;52.690;6.812;2023-09-19T03:41:32;14.00;99.90
52919;DHT22;38793;52.690;6.812;2023-09-19T03:43:58;14.00;99.90
52919;DHT22;38793;52.690;6.812;2023-09-19T03:46:24;14.00;99.90
52919;DHT22;38793;52.690;6.812;2023-09-19T03:48:50;14.00;99.90
52919;DHT22;38793;52.690;6.812;2023-09-19T03:51:16;14.10;99.90
52919;DHT22;38793;52.690;6.812;2023-09-19T03:53:41;14.10;99.90
52919;DHT22;38793;52.690;6.812;2023-09-19T03:56:07;14.10;99.90
52919;DHT22;38793;52.690;6.812;2023-09-19T03:58:33;14.10;99.90
52919;DHT22;38793;52.690;6.812;2023-09-19T04:01:03;14.20;99.90
52919;DHT22;38793;52.690;6.812;2023-09-19T04:03:29;14.20;99.90
52919;DHT22;38793;52.690;6.812;2023-09-19T04:06:01;14.20;99.90
52919;DHT22;38793;52.690;6.812;2023-09-19T04:08:27;14.20;99.90
52919;DHT22;38793;52.690;6.812;2023-09-19T04:10:52;14.20;99.90
52919;DHT22;38793;52.690;6.812;2023-09-19T04:13:18;14.20;99.90
52919;DHT22;38793;52.690;6.812;2023-09-19T04:15:44;14.20;99.90
52919;DHT22;38793;52.690;6.812;2023-09-19T04:18:12;14.20;99.90
52919;DHT22;38793;52.690;6.812;2023-09-19T04:20:37;14.30;99.90
52919;DHT22;38793;52.690;6.812;2023-09-19T04:23:03;14.20;99.90
52919;DHT22;38793;52.690;6.812;2023-09-19T04:25:30;14.20;99.90
52919;DHT22;38793;52.690;6.812;2023-09-19T04:27:57;14.30;99.90
52919;DHT22;38793;52.690;6.812;2023-09-19T04:30:23;14.20;99.90
52919;DHT22;38793;52.690;6.812;2023-09-19T04:32:48;14.20;99.90
52919;DHT22;38793;52.690;6.812;2023-09-19T04:35:16;14.20;99.90
52919;DHT22;38793;52.690;6.812;2023-09-19T04:37:41;14.20;99.90
52919;DHT22;38793;52.690;6.812;2023-09-19T04:40:08;14.30;99.90
52919;DHT22;38793;52.690;6.812;2023-09-19T04:42:45;14.20;99.90
52919;DHT22;38793;52.690;6.812;2023-09-19T04:45:18;14.20;99.90
52919;DHT22;38793;52.690;6.812;2023-09-19T04:47:45;14.20;99.90
52919;DHT22;38793;52.690;6.812;2023-09-19T04:50:11;14.10;99.90
52919;DHT22;38793;52.690;6.812;2023-09-19T04:52:41;14.10;99.90
52919;DHT22;38793;52.690;6.812;2023-09-19T04:55:13;14.10;99.90
52919;DHT22;38793;52.690;6.812;2023-09-19T04:57:44;14.00;99.90
52919;DHT22;38793;52.690;6.812;2023-09-19T05:00:12;14.10;99.90
52919;DHT22;38793;52.690;6.812;2023-09-19T05:02:41;14.00;99.90
52919;DHT22;38793;52.690;6.812;2023-09-19T05:05:08;14.00;99.90
52919;DHT22;38793;52.690;6.812;2023-09-19T05:07:34;14.00;99.90
52919;DHT22;38793;52.690;6.812;2023-09-19T05:10:00;14.00;99.90
52919;DHT22;38793;52.690;6.812;2023-09-19T05:12:28;13.90;99.90
52919;DHT22;38793;52.690;6.812;2023-09-19T05:14:55;13.90;99.90
52919;DHT22;38793;52.690;6.812;2023-09-19T05:17:20;13.90;99.90
52919;DHT22;38793;52.690;6.812;2023-09-19T05:19:46;13.90;99.90
52919;DHT22;38793;52.690;6.812;2023-09-19T05:22:12;13.90;99.90
52919;DHT22;38793;52.690;6.812;2023-09-19T05:24:38;13.90;99.90
52919;DHT22;38793;52.690;6.812;2023-09-19T05:27:04;13.90;99.90
52919;DHT22;38793;52.690;6.812;2023-09-19T05:29:32;13.80;99.90
52919;DHT22;38793;52.690;6.812;2023-09-19T05:31:59;13.80;99.90
52919;DHT22;38793;52.690;6.812;2023-09-19T05:34:24;13.80;99.90
52919;DHT22;38793;52.690;6.812;2023-09-19T05:36:53;13.80;99.90
52919;DHT22;38793;52.690;6.812;2023-09-19T05:39:20;13.80;99.90
52919;DHT22;38793;52.690;6.812;2023-09-19T05:41:46;13.80;99.90
52919;DHT22;38793;52.690;6.812;2023-09-19T05:44:13;13.80;99.90
52919;DHT22;38793;52.690;6.812;2023-09-19T05:46:39;13.70;99.90
52919;DHT22;38793;52.690;6.812;2023-09-19T05:49:05;13.70;99.90
52919;DHT22;38793;52.690;6.812;2023-09-19T05:51:31;13.70;99.90
52919;DHT22;38793;52.690;6.812;2023-09-19T05:53:56;13.70;99.90
52919;DHT22;38793;52.690;6.812;2023-09-19T05:56:23;13.70;99.90
52919;DHT22;38793;52.690;6.812;2023-09-19T05:58:49;13.70;99.90
52919;DHT22;38793;52.690;6.812;2023-09-19T06:01:15;13.70;99.90
52919;DHT22;38793;52.690;6.812;2023-09-19T06:03:40;13.80;99.90
52919;DHT22;38793;52.690;6.812;2023-09-19T06:06:06;13.90;99.90
52919;DHT22;38793;52.690;6.812;2023-09-19T06:08:32;14.20;99.90
52919;DHT22;38793;52.690;6.812;2023-09-19T06:10:59;14.40;99.90
52919;DHT22;38793;52.690;6.812;2023-09-19T06:13:25;14.50;99.90
52919;DHT22;38793;52.690;6.812;2023-09-19T06:15:53;14.80;99.90
52919;DHT22;38793;52.690;6.812;2023-09-19T06:18:19;15.00;99.90
52919;DHT22;38793;52.690;6.812;2023-09-19T06:20:48;15.20;99.90
52919;DHT22;38793;52.690;6.812;2023-09-19T06:23:16;15.30;99.90
52919;DHT22;38793;52.690;6.812;2023-09-19T06:25:42;15.30;99.90
52919;DHT22;38793;52.690;6.812;2023-09-19T06:28:09;15.20;99.90
52919;DHT22;38793;52.690;6.812;2023-09-19T06:30:37;15.00;99.90
52919;DHT22;38793;52.690;6.812;2023-09-19T06:33:05;14.80;99.90
52919;DHT22;38793;52.690;6.812;2023-09-19T06:35:34;14.70;99.90
52919;DHT22;38793;52.690;6.812;2023-09-19T06:38:02;14.50;99.90
52919;DHT22;38793;52.690;6.812;2023-09-19T06:40:29;14.40;99.90
52919;DHT22;38793;52.690;6.812;2023-09-19T06:42:56;14.40;99.90
52919;DHT22;38793;52.690;6.812;2023-09-19T06:45:22;14.40;99.90
52919;DHT22;38793;52.690;6.812;2023-09-19T06:47:51;14.30;99.90
52919;DHT22;38793;52.690;6.812;2023-09-19T06:50:18;14.30;99.90
52919;DHT22;38793;52.690;6.812;2023-09-19T06:52:45;14.30;99.90
52919;DHT22;38793;52.690;6.812;2023-09-19T06:55:12;14.30;99.90
52919;DHT22;38793;52.690;6.812;2023-09-19T06:57:39;14.30;99.90
52919;DHT22;38793;52.690;6.812;2023-09-19T07:00:06;14.30;99.90
52919;DHT22;38793;52.690;6.812;2023-09-19T07:02:41;14.30;99.90
52919;DHT22;38793;52.690;6.812;2023-09-19T07:05:07;14.40;99.90
52919;DHT22;38793;52.690;6.812;2023-09-19T07:07:33;14.40;99.90
52919;DHT22;38793;52.690;6.812;2023-09-19T07:10:01;14.40;99.90
52919;DHT22;38793;52.690;6.812;2023-09-19T07:12:27;14.50;99.90
52919;DHT22;38793;52.690;6.812;2023-09-19T07:14:52;14.50;99.90
52919;DHT22;38793;52.690;6.812;2023-09-19T07:17:18;14.60;99.90
52919;DHT22;38793;52.690;6.812;2023-09-19T07:19:44;14.70;99.90
52919;DHT22;38793;52.690;6.812;2023-09-19T07:22:10;14.80;99.90
52919;DHT22;38793;52.690;6.812;2023-09-19T07:24:36;14.90;99.90
52919;DHT22;38793;52.690;6.812;2023-09-19T07:27:02;15.00;99.90
52919;DHT22;38793;52.690;6.812;2023-09-19T07:29:28;15.10;99.90
52919;DHT22;38793;52.690;6.812;2023-09-19T07:31:53;15.20;99.90
52919;DHT22;38793;52.690;6.812;2023-09-19T07:34:19;15.30;99.90
52919;DHT22;38793;52.690;6.812;2023-09-19T07:36:47;15.30;99.90
52919;DHT22;38793;52.690;6.812;2023-09-19T07:39:13;15.30;99.90
52919;DHT22;38793;52.690;6.812;2023-09-19T07:41:39;15.40;99.90
52919;DHT22;38793;52.690;6.812;2023-09-19T07:44:04;15.30;99.90
52919;DHT22;38793;52.690;6.812;2023-09-19T07:46:30;15.40;99.90
52919;DHT22;38793;52.690;6.812;2023-09-19T07:48:57;15.40;99.90
52919;DHT22;38793;52.690;6.812;2023-09-19T07:51:23;15.50;99.90
52919;DHT22;38793;52.690;6.812;2023-09-19T07:53:48;15.50;99.90
52919;DHT22;38793;52.690;6.812;2023-09-19T07:56:14;15.50;99.90
52919;DHT22;38793;52.690;6.812;2023-09-19T07:58:41;15.60;99.90
52919;DHT22;38793;52.690;6.812;2023-09-19T08:01:10;15.60;99.90
52919;DHT22;38793;52.690;6.812;2023-09-19T08:03:36;15.70;99.90
52919;DHT22;38793;52.690;6.812;2023-09-19T08:06:06;15.70;99.90
52919;DHT22;38793;52.690;6.812;2023-09-19T08:08:33;15.70;99.90
52919;DHT22;38793;52.690;6.812;2023-09-19T08:11:05;15.80;99.90
52919;DHT22;38793;52.690;6.812;2023-09-19T08:13:41;15.80;99.90
52919;DHT22;38793;52.690;6.812;2023-09-19T08:16:12;15.80;99.90
52919;DHT22;38793;52.690;6.812;2023-09-19T08:18:38;15.90;99.90
52919;DHT22;38793;52.690;6.812;2023-09-19T08:21:05;15.90;99.90
52919;DHT22;38793;52.690;6.812;2023-09-19T08:23:33;15.90;99.90
52919;DHT22;38793;52.690;6.812;2023-09-19T08:25:58;15.90;99.90
52919;DHT22;38793;52.690;6.812;2023-09-19T08:28:28;15.90;99.90
52919;DHT22;38793;52.690;6.812;2023-09-19T08:30:55;15.90;99.90
52919;DHT22;38793;52.690;6.812;2023-09-19T08:33:21;16.00;99.90
52919;DHT22;38793;52.690;6.812;2023-09-19T08:35:46;16.00;99.90
52919;DHT22;38793;52.690;6.812;2023-09-19T08:38:12;16.00;99.90
52919;DHT22;38793;52.690;6.812;2023-09-19T08:40:40;16.10;99.90
52919;DHT22;38793;52.690;6.812;2023-09-19T08:43:07;16.20;99.90
52919;DHT22;38793;52.690;6.812;2023-09-19T08:45:34;16.20;99.90
52919;DHT22;38793;52.690;6.812;2023-09-19T08:50:43;16.20;99.90
52919;DHT22;38793;52.690;6.812;2023-09-19T08:53:19;16.30;99.90
52919;DHT22;38793;52.690;6.812;2023-09-19T08:55:46;16.30;99.90
52919;DHT22;38793;52.690;6.812;2023-09-19T08:58:16;16.40;99.90
52919;DHT22;38793;52.690;6.812;2023-09-19T09:00:48;16.40;99.90
52919;DHT22;38793;52.690;6.812;2023-09-19T09:03:16;16.50;99.90
52919;DHT22;38793;52.690;6.812;2023-09-19T09:05:45;16.50;99.90
52919;DHT22;38793;52.690;6.812;2023-09-19T09:08:12;16.60;99.90
52919;DHT22;38793;52.690;6.812;2023-09-19T09:10:38;16.70;99.90
52919;DHT22;38793;52.690;6.812;2023-09-19T09:13:06;16.80;99.90
52919;DHT22;38793;52.690;6.812;2023-09-19T09:15:35;16.90;99.90
52919;DHT22;38793;52.690;6.812;2023-09-19T09:18:02;17.00;99.90
52919;DHT22;38793;52.690;6.812;2023-09-19T09:20:30;17.10;99.90
52919;DHT22;38793;52.690;6.812;2023-09-19T09:22:56;17.20;99.90
52919;DHT22;38793;52.690;6.812;2023-09-19T09:25:52;17.30;99.90
52919;DHT22;38793;52.690;6.812;2023-09-19T09:28:26;17.40;99.90
52919;DHT22;38793;52.690;6.812;2023-09-19T09:30:52;17.50;99.90
52919;DHT22;38793;52.690;6.812;2023-09-19T09:33:18;17.50;99.90
52919;DHT22;38793;52.690;6.812;2023-09-19T09:38:21;17.70;99.90
52919;DHT22;38793;52.690;6.812;2023-09-19T09:40:49;17.80;99.90
52919;DHT22;38793;52.690;6.812;2023-09-19T09:43:45;17.90;99.90
52919;DHT22;38793;52.690;6.812;2023-09-19T09:46:16;17.90;99.90
52919;DHT22;38793;52.690;6.812;2023-09-19T09:51:44;17.80;99.90
52919;DHT22;38793;52.690;6.812;2023-09-19T09:54:15;17.80;99.90
52919;DHT22;38793;52.690;6.812;2023-09-19T09:56:52;17.80;99.90
52919;DHT22;38793;52.690;6.812;2023-09-19T09:59:22;17.80;99.90
52919;DHT22;38793;52.690;6.812;2023-09-19T10:01:49;17.90;99.90
52919;DHT22;38793;52.690;6.812;2023-09-19T10:04:27;17.90;99.90
52919;DHT22;38793;52.690;6.812;2023-09-19T10:06:55;17.90;99.90
52919;DHT22;38793;52.690;6.812;2023-09-19T10:09:20;17.80;99.90
52919;DHT22;38793;52.690;6.812;2023-09-19T10:12:06;17.80;99.90
52919;DHT22;38793;52.690;6.812;2023-09-19T10:14:37;17.80;99.90
52919;DHT22;38793;52.690;6.812;2023-09-19T10:17:05;17.80;99.90
52919;DHT22;38793;52.690;6.812;2023-09-19T10:19:51;17.80;99.90
52919;DHT22;38793;52.690;6.812;2023-09-19T10:22:23;17.80;99.90
52919;DHT22;38793;52.690;6.812;2023-09-19T10:24:51;17.90;99.90
52919;DHT22;38793;52.690;6.812;2023-09-19T10:27:19;18.00;99.90
52919;DHT22;38793;52.690;6.812;2023-09-19T10:29:49;18.00;99.90
52919;DHT22;38793;52.690;6.812;2023-09-19T10:32:22;18.00;99.90
52919;DHT22;38793;52.690;6.812;2023-09-19T10:34:49;18.00;99.90
52919;DHT22;38793;52.690;6.812;2023-09-19T10:37:20;18.00;99.90
52919;DHT22;38793;52.690;6.812;2023-09-19T10:39:48;18.00;99.90
52919;DHT22;38793;52.690;6.812;2023-09-19T10:42:19;18.00;99.90
52919;DHT22;38793;52.690;6.812;2023-09-19T10:44:46;18.10;99.90
52919;DHT22;38793;52.690;6.812;2023-09-19T10:47:14;18.20;99.90
52919;DHT22;38793;52.690;6.812;2023-09-19T10:49:45;18.20;99.90
52919;DHT22;38793;52.690;6.812;2023-09-19T10:52:17;18.30;99.90
52919;DHT22;38793;52.690;6.812;2023-09-19T10:54:52;18.20;99.90
52919;DHT22;38793;52.690;6.812;2023-09-19T10:57:26;18.20;99.90
52919;DHT22;38793;52.690;6.812;2023-09-19T11:00:09;18.20;99.90
52919;DHT22;38793;52.690;6.812;2023-09-19T11:05:37;18.20;99.90
52919;DHT22;38793;52.690;6.812;2023-09-19T11:08:07;18.20;99.90
52919;DHT22;38793;52.690;6.812;2023-09-19T11:10:49;18.10;99.90
52919;DHT22;38793;52.690;6.812;2023-09-19T11:13:31;18.00;99.90
52919;DHT22;38793;52.690;6.812;2023-09-19T11:26:43;18.00;99.90
52919;DHT22;38793;52.690;6.812;2023-09-19T11:29:30;18.00;99.90
52919;DHT22;38793;52.690;6.812;2023-09-19T11:31:57;18.00;99.90
52919;DHT22;38793;52.690;6.812;2023-09-19T11:39:37;18.10;99.90
52919;DHT22;38793;52.690;6.812;2023-09-19T11:42:41;18.20;99.90
52919;DHT22;38793;52.690;6.812;2023-09-19T11:45:07;18.20;99.90
52919;DHT22;38793;52.690;6.812;2023-09-19T11:47:55;18.40;99.90
52919;DHT22;38793;52.690;6.812;2023-09-19T11:50:24;18.50;99.90
52919;DHT22;38793;52.690;6.812;2023-09-19T11:52:51;18.70;99.90
52919;DHT22;38793;52.690;6.812;2023-09-19T11:55:17;18.70;99.90
52919;DHT22;38793;52.690;6.812;2023-09-19T11:57:48;18.70;99.90
52919;DHT22;38793;52.690;6.812;2023-09-19T12:00:19;18.70;99.90
52919;DHT22;38793;52.690;6.812;2023-09-19T12:02:47;18.60;99.90
52919;DHT22;38793;52.690;6.812;2023-09-19T12:05:17;18.60;99.90
52919;DHT22;38793;52.690;6.812;2023-09-19T12:07:53;18.50;99.90
52919;DHT22;38793;52.690;6.812;2023-09-19T12:10:19;18.50;99.90
52919;DHT22;38793;52.690;6.812;2023-09-19T12:12:48;18.40;99.90
52919;DHT22;38793;52.690;6.812;2023-09-19T12:15:14;18.40;99.90
52919;DHT22;38793;52.690;6.812;2023-09-19T12:17:41;18.30;99.90
52919;DHT22;38793;52.690;6.812;2023-09-19T12:20:10;18.20;99.90
52919;DHT22;38793;52.690;6.812;2023-09-19T12:22:39;18.10;99.90
52919;DHT22;38793;52.690;6.812;2023-09-19T12:25:08;18.10;99.90
52919;DHT22;38793;52.690;6.812;2023-09-19T12:27:49;18.10;99.90
52919;DHT22;38793;52.690;6.812;2023-09-19T12:30:18;18.30;99.90
52919;DHT22;38793;52.690;6.812;2023-09-19T12:32:46;18.50;99.90
52919;DHT22;38793;52.690;6.812;2023-09-19T12:35:30;18.80;99.90
52919;DHT22;38793;52.690;6.812;2023-09-19T12:37:57;18.90;99.90
52919;DHT22;38793;52.690;6.812;2023-09-19T12:40:23;19.00;99.90
52919;DHT22;38793;52.690;6.812;2023-09-19T12:42:56;18.90;99.90
52919;DHT22;38793;52.690;6.812;2023-09-19T12:45:24;18.80;99.90
52919;DHT22;38793;52.690;6.812;2023-09-19T12:48:24;18.70;99.90
52919;DHT22;38793;52.690;6.812;2023-09-19T12:51:08;18.50;99.90
52919;DHT22;38793;52.690;6.812;2023-09-19T12:53:45;18.40;99.90
52919;DHT22;38793;52.690;6.812;2023-09-19T12:56:17;18.30;99.90
52919;DHT22;38793;52.690;6.812;2023-09-19T12:58:52;18.20;99.90
52919;DHT22;38793;52.690;6.812;2023-09-19T13:01:22;18.20;99.90
52919;DHT22;38793;52.690;6.812;2023-09-19T13:04:19;18.20;99.90
52919;DHT22;38793;52.690;6.812;2023-09-19T13:06:49;18.30;99.90
52919;DHT22;38793;52.690;6.812;2023-09-19T13:09:16;18.40;99.90
52919;DHT22;38793;52.690;6.812;2023-09-19T13:11:43;18.40;99.90
52919;DHT22;38793;52.690;6.812;2023-09-19T13:14:20;18.40;99.90
52919;DHT22;38793;52.690;6.812;2023-09-19T13:16:58;18.40;99.90
52919;DHT22;38793;52.690;6.812;2023-09-19T13:19:39;18.40;99.90
52919;DHT22;38793;52.690;6.812;2023-09-19T13:22:43;18.30;99.90
52919;DHT22;38793;52.690;6.812;2023-09-19T13:25:19;18.30;99.90
52919;DHT22;38793;52.690;6.812;2023-09-19T13:27:52;18.30;99.90
52919;DHT22;38793;52.690;6.812;2023-09-19T13:30:21;18.30;99.90
52919;DHT22;38793;52.690;6.812;2023-09-19T13:32:47;18.30;99.90
52919;DHT22;38793;52.690;6.812;2023-09-19T13:35:13;18.30;99.90
52919;DHT22;38793;52.690;6.812;2023-09-19T13:37:40;18.30;99.90
52919;DHT22;38793;52.690;6.812;2023-09-19T13:40:13;18.30;99.90
52919;DHT22;38793;52.690;6.812;2023-09-19T13:42:40;18.20;99.90
52919;DHT22;38793;52.690;6.812;2023-09-19T13:45:07;18.20;99.90
52919;DHT22;38793;52.690;6.812;2023-09-19T13:47:33;18.20;99.90
52919;DHT22;38793;52.690;6.812;2023-09-19T13:49:59;18.20;99.90
52919;DHT22;38793;52.690;6.812;2023-09-19T13:52:26;18.10;99.90
52919;DHT22;38793;52.690;6.812;2023-09-19T13:54:54;18.20;99.90
52919;DHT22;38793;52.690;6.812;2023-09-19T13:57:22;18.10;99.90
52919;DHT22;38793;52.690;6.812;2023-09-19T13:59:48;18.10;99.90
52919;DHT22;38793;52.690;6.812;2023-09-19T14:02:14;18.10;99.90
52919;DHT22;38793;52.690;6.812;2023-09-19T14:04:40;18.10;99.90
52919;DHT22;38793;52.690;6.812;2023-09-19T14:07:06;18.10;99.90
52919;DHT22;38793;52.690;6.812;2023-09-19T14:09:33;18.20;99.90
52919;DHT22;38793;52.690;6.812;2023-09-19T14:11:59;18.20;99.90
52919;DHT22;38793;52.690;6.812;2023-09-19T14:14:25;18.20;99.90
52919;DHT22;38793;52.690;6.812;2023-09-19T14:16:50;18.20;99.90
52919;DHT22;38793;52.690;6.812;2023-09-19T14:19:18;18.30;99.90
52919;DHT22;38793;52.690;6.812;2023-09-19T14:21:43;18.30;99.90
52919;DHT22;38793;52.690;6.812;2023-09-19T14:24:09;18.30;99.90
52919;DHT22;38793;52.690;6.812;2023-09-19T14:26:39;18.30;99.90
52919;DHT22;38793;52.690;6.812;2023-09-19T14:29:05;18.30;99.90
52919;DHT22;38793;52.690;6.812;2023-09-19T14:31:33;18.30;99.90
52919;DHT22;38793;52.690;6.812;2023-09-19T14:33:59;18.30;99.90
52919;DHT22;38793;52.690;6.812;2023-09-19T14:36:25;18.30;99.90
52919;DHT22;38793;52.690;6.812;2023-09-19T14:38:54;18.30;99.90
52919;DHT22;38793;52.690;6.812;2023-09-19T14:41:20;18.20;99.90
52919;DHT22;38793;52.690;6.812;2023-09-19T14:43:46;18.30;99.90
52919;DHT22;38793;52.690;6.812;2023-09-19T14:46:11;18.30;99.90
52919;DHT22;38793;52.690;6.812;2023-09-19T14:48:37;18.30;99.90
52919;DHT22;38793;52.690;6.812;2023-09-19T14:51:04;18.40;99.90
52919;DHT22;38793;52.690;6.812;2023-09-19T14:53:33;18.40;99.90
52919;DHT22;38793;52.690;6.812;2023-09-19T14:56:02;18.40;99.90
52919;DHT22;38793;52.690;6.812;2023-09-19T14:58:29;18.40;99.90
52919;DHT22;38793;52.690;6.812;2023-09-19T15:01:08;18.40;99.90
52919;DHT22;38793;52.690;6.812;2023-09-19T15:03:38;18.40;99.90
52919;DHT22;38793;52.690;6.812;2023-09-19T15:06:09;18.40;99.90
52919;DHT22;38793;52.690;6.812;2023-09-19T15:08:36;18.40;99.90
52919;DHT22;38793;52.690;6.812;2023-09-19T15:11:04;18.40;99.90
52919;DHT22;38793;52.690;6.812;2023-09-19T15:13:34;18.40;99.90
52919;DHT22;38793;52.690;6.812;2023-09-19T15:16:01;18.40;99.90
52919;DHT22;38793;52.690;6.812;2023-09-19T15:18:28;18.40;99.90
52919;DHT22;38793;52.690;6.812;2023-09-19T15:20:55;18.40;99.90
52919;DHT22;38793;52.690;6.812;2023-09-19T15:23:21;18.40;99.90
52919;DHT22;38793;52.690;6.812;2023-09-19T15:25:49;18.40;99.90
52919;DHT22;38793;52.690;6.812;2023-09-19T15:28:15;18.40;99.90
52919;DHT22;38793;52.690;6.812;2023-09-19T15:30:41;18.40;99.90
52919;DHT22;38793;52.690;6.812;2023-09-19T15:33:07;18.40;99.90
52919;DHT22;38793;52.690;6.812;2023-09-19T15:35:32;18.40;99.90
52919;DHT22;38793;52.690;6.812;2023-09-19T15:37:58;18.40;99.90
52919;DHT22;38793;52.690;6.812;2023-09-19T15:40:27;18.40;99.90
52919;DHT22;38793;52.690;6.812;2023-09-19T15:42:56;18.50;99.90
52919;DHT22;38793;52.690;6.812;2023-09-19T15:45:23;18.40;99.90
52919;DHT22;38793;52.690;6.812;2023-09-19T15:47:49;18.40;99.90
52919;DHT22;38793;52.690;6.812;2023-09-19T15:50:15;18.50;99.90
52919;DHT22;38793;52.690;6.812;2023-09-19T15:52:41;18.40;99.90
52919;DHT22;38793;52.690;6.812;2023-09-19T15:55:07;18.40;99.90
52919;DHT22;38793;52.690;6.812;2023-09-19T15:57:37;18.40;99.90
52919;DHT22;38793;52.690;6.812;2023-09-19T16:00:04;18.40;99.90
52919;DHT22;38793;52.690;6.812;2023-09-19T16:02:38;18.40;99.90
52919;DHT22;38793;52.690;6.812;2023-09-19T16:05:04;18.40;99.90
52919;DHT22;38793;52.690;6.812;2023-09-19T16:07:33;18.40;99.90
52919;DHT22;38793;52.690;6.812;2023-09-19T16:10:02;18.50;99.90
52919;DHT22;38793;52.690;6.812;2023-09-19T16:12:28;18.50;99.90
52919;DHT22;38793;52.690;6.812;2023-09-19T16:14:55;18.40;99.90
52919;DHT22;38793;52.690;6.812;2023-09-19T16:17:20;18.40;99.90
52919;DHT22;38793;52.690;6.812;2023-09-19T16:19:46;18.40;99.90
52919;DHT22;38793;52.690;6.812;2023-09-19T16:22:12;18.40;99.90